sensor_id;sensor_type;location;lat;lon;timestamp;temperature;humidity
14517;DHT22;7344;50.864;4.362;2023-07-02T00:02:21;17.10;95.50
14517;DHT22;7344;50.864;4.362;2023-07-02T00:04:47;17.00;96.30
14517;DHT22;7344;50.864;4.362;2023-07-02T00:07:13;17.00;99.50
14517;DHT22;7344;50.864;4.362;2023-07-02T00:09:40;16.90;99.90
14517;DHT22;7344;50.864;4.362;2023-07-02T00:12:06;17.00;99.90
14517;DHT22;7344;50.864;4.362;2023-07-02T00:14:32;17.00;98.30
14517;DHT22;7344;50.864;4.362;2023-07-02T00:16:58;17.00;99.40
14517;DHT22;7344;50.864;4.362;2023-07-02T00:19:24;17.00;99.90
14517;DHT22;7344;50.864;4.362;2023-07-02T00:21:50;16.90;98.80
14517;DHT22;7344;50.864;4.362;2023-07-02T00:24:15;16.90;99.90
14517;DHT22;7344;50.864;4.362;2023-07-02T00:26:42;16.90;99.90
14517;DHT22;7344;50.864;4.362;2023-07-02T00:29:08;16.90;99.90
14517;DHT22;7344;50.864;4.362;2023-07-02T00:31:34;16.80;99.90
14517;DHT22;7344;50.864;4.362;2023-07-02T00:34:01;16.80;99.90
14517;DHT22;7344;50.864;4.362;2023-07-02T00:36:27;16.90;99.90
14517;DHT22;7344;50.864;4.362;2023-07-02T00:38:53;16.90;99.90
14517;DHT22;7344;50.864;4.362;2023-07-02T00:41:18;17.00;99.90
14517;DHT22;7344;50.864;4.362;2023-07-02T00:43:44;16.90;99.90
14517;DHT22;7344;50.864;4.362;2023-07-02T00:46:17;16.90;99.90
14517;DHT22;7344;50.864;4.362;2023-07-02T00:48:49;16.90;99.90
14517;DHT22;7344;50.864;4.362;2023-07-02T00:51:19;16.90;99.90
14517;DHT22;7344;50.864;4.362;2023-07-02T00:53:45;16.90;99.90
14517;DHT22;7344;50.864;4.362;2023-07-02T00:56:11;16.90;99.90
14517;DHT22;7344;50.864;4.362;2023-07-02T00:58:42;16.80;99.90
14517;DHT22;7344;50.864;4.362;2023-07-02T01:01:17;16.80;99.90
14517;DHT22;7344;50.864;4.362;2023-07-02T01:04:01;16.80;99.90
14517;DHT22;7344;50.864;4.362;2023-07-02T01:06:32;16.80;99.90
14517;DHT22;7344;50.864;4.362;2023-07-02T01:09:00;16.80;99.90
14517;DHT22;7344;50.864;4.362;2023-07-02T01:11:35;16.90;99.90
14517;DHT22;7344;50.864;4.362;2023-07-02T01:14:04;16.90;99.90
14517;DHT22;7344;50.864;4.362;2023-07-02T01:16:31;16.80;99.90
14517;DHT22;7344;50.864;4.362;2023-07-02T01:18:59;16.80;99.90
14517;DHT22;7344;50.864;4.362;2023-07-02T01:21:30;16.90;99.90
14517;DHT22;7344;50.864;4.362;2023-07-02T01:23:57;16.90;99.90
14517;DHT22;7344;50.864;4.362;2023-07-02T01:26:24;17.00;99.90
14517;DHT22;7344;50.864;4.362;2023-07-02T01:28:50;17.10;99.90
14517;DHT22;7344;50.864;4.362;2023-07-02T01:31:16;17.00;99.90
14517;DHT22;7344;50.864;4.362;2023-07-02T01:33:41;17.00;99.90
14517;DHT22;7344;50.864;4.362;2023-07-02T01:36:07;17.00;99.90
14517;DHT22;7344;50.864;4.362;2023-07-02T01:38:33;17.00;99.90
14517;DHT22;7344;50.864;4.362;2023-07-02T01:40:58;16.90;99.90
14517;DHT22;7344;50.864;4.362;2023-07-02T01:43:24;17.00;99.90
14517;DHT22;7344;50.864;4.362;2023-07-02T01:45:50;17.00;99.90
14517;DHT22;7344;50.864;4.362;2023-07-02T01:48:16;16.90;99.90
14517;DHT22;7344;50.864;4.362;2023-07-02T01:50:41;17.00;99.90
14517;DHT22;7344;50.864;4.362;2023-07-02T01:53:07;17.00;99.90
14517;DHT22;7344;50.864;4.362;2023-07-02T01:55:32;17.10;99.90
14517;DHT22;7344;50.864;4.362;2023-07-02T01:57:58;17.10;99.90
14517;DHT22;7344;50.864;4.362;2023-07-02T02:00:23;17.10;99.90
14517;DHT22;7344;50.864;4.362;2023-07-02T02:02:50;17.00;99.90
14517;DHT22;7344;50.864;4.362;2023-07-02T02:05:16;17.00;99.90
14517;DHT22;7344;50.864;4.362;2023-07-02T02:07:41;17.00;99.90
14517;DHT22;7344;50.864;4.362;2023-07-02T02:10:07;17.00;99.90
14517;DHT22;7344;50.864;4.362;2023-07-02T02:12:34;17.00;99.90
14517;DHT22;7344;50.864;4.362;2023-07-02T02:14:59;17.00;99.90
14517;DHT22;7344;50.864;4.362;2023-07-02T02:17:25;16.90;99.90
14517;DHT22;7344;50.864;4.362;2023-07-02T02:19:51;16.90;99.90
14517;DHT22;7344;50.864;4.362;2023-07-02T02:22:16;16.80;99.90
14517;DHT22;7344;50.864;4.362;2023-07-02T02:24:42;16.80;99.90
14517;DHT22;7344;50.864;4.362;2023-07-02T02:27:08;16.80;99.90
14517;DHT22;7344;50.864;4.362;2023-07-02T02:29:34;16.90;99.90
14517;DHT22;7344;50.864;4.362;2023-07-02T02:32:00;16.80;99.90
14517;DHT22;7344;50.864;4.362;2023-07-02T02:34:25;16.80;99.90
14517;DHT22;7344;50.864;4.362;2023-07-02T02:36:51;16.80;99.90
14517;DHT22;7344;50.864;4.362;2023-07-02T02:39:16;16.70;99.90
14517;DHT22;7344;50.864;4.362;2023-07-02T02:42:02;16.70;99.90
14517;DHT22;7344;50.864;4.362;2023-07-02T02:44:27;16.70;99.90
14517;DHT22;7344;50.864;4.362;2023-07-02T02:46:53;16.60;99.90
14517;DHT22;7344;50.864;4.362;2023-07-02T02:49:18;16.50;99.90
14517;DHT22;7344;50.864;4.362;2023-07-02T02:51:44;16.50;99.90
14517;DHT22;7344;50.864;4.362;2023-07-02T02:54:09;16.50;99.90
14517;DHT22;7344;50.864;4.362;2023-07-02T02:56:35;16.50;99.90
14517;DHT22;7344;50.864;4.362;2023-07-02T02:59:01;16.50;99.90
14517;DHT22;7344;50.864;4.362;2023-07-02T03:01:26;16.40;99.90
14517;DHT22;7344;50.864;4.362;2023-07-02T03:03:58;16.40;99.90
14517;DHT22;7344;50.864;4.362;2023-07-02T03:06:24;16.40;99.90
14517;DHT22;7344;50.864;4.362;2023-07-02T03:08:49;16.30;99.90
14517;DHT22;7344;50.864;4.362;2023-07-02T03:11:15;16.30;99.90
14517;DHT22;7344;50.864;4.362;2023-07-02T03:13:41;16.30;99.90
14517;DHT22;7344;50.864;4.362;2023-07-02T03:16:06;16.30;99.90
14517;DHT22;7344;50.864;4.362;2023-07-02T03:18:32;16.20;99.90
14517;DHT22;7344;50.864;4.362;2023-07-02T03:20:59;16.20;99.90
14517;DHT22;7344;50.864;4.362;2023-07-02T03:23:24;16.20;99.90
14517;DHT22;7344;50.864;4.362;2023-07-02T03:25:50;16.10;99.90
14517;DHT22;7344;50.864;4.362;2023-07-02T03:28:16;16.20;99.90
14517;DHT22;7344;50.864;4.362;2023-07-02T03:30:41;16.20;99.90
14517;DHT22;7344;50.864;4.362;2023-07-02T03:33:08;16.10;99.90
14517;DHT22;7344;50.864;4.362;2023-07-02T03:35:34;16.10;99.90
14517;DHT22;7344;50.864;4.362;2023-07-02T03:38:00;16.10;99.90
14517;DHT22;7344;50.864;4.362;2023-07-02T03:40:25;16.00;99.90
14517;DHT22;7344;50.864;4.362;2023-07-02T03:42:51;16.00;99.90
14517;DHT22;7344;50.864;4.362;2023-07-02T03:45:17;16.00;99.90
14517;DHT22;7344;50.864;4.362;2023-07-02T03:47:42;16.00;99.90
14517;DHT22;7344;50.864;4.362;2023-07-02T03:50:09;15.90;99.90
14517;DHT22;7344;50.864;4.362;2023-07-02T03:52:35;15.90;99.90
14517;DHT22;7344;50.864;4.362;2023-07-02T03:55:00;15.80;99.90
14517;DHT22;7344;50.864;4.362;2023-07-02T03:57:26;15.90;99.90
14517;DHT22;7344;50.864;4.362;2023-07-02T03:59:52;15.90;99.90
14517;DHT22;7344;50.864;4.362;2023-07-02T04:02:18;16.00;99.90
14517;DHT22;7344;50.864;4.362;2023-07-02T04:04:43;16.00;99.90
14517;DHT22;7344;50.864;4.362;2023-07-02T04:07:09;16.00;99.90
14517;DHT22;7344;50.864;4.362;2023-07-02T04:09:35;15.90;99.90
14517;DHT22;7344;50.864;4.362;2023-07-02T04:12:00;15.90;99.90
14517;DHT22;7344;50.864;4.362;2023-07-02T04:14:27;15.90;99.90
14517;DHT22;7344;50.864;4.362;2023-07-02T04:16:52;15.90;99.90
14517;DHT22;7344;50.864;4.362;2023-07-02T04:19:18;15.90;99.90
14517;DHT22;7344;50.864;4.362;2023-07-02T04:21:43;15.90;99.90
14517;DHT22;7344;50.864;4.362;2023-07-02T04:24:09;15.90;99.90
14517;DHT22;7344;50.864;4.362;2023-07-02T04:26:35;15.90;99.90
14517;DHT22;7344;50.864;4.362;2023-07-02T04:29:02;16.00;99.90
14517;DHT22;7344;50.864;4.362;2023-07-02T04:31:27;16.10;99.90
14517;DHT22;7344;50.864;4.362;2023-07-02T04:33:53;16.10;99.90
14517;DHT22;7344;50.864;4.362;2023-07-02T04:36:18;16.10;99.90
14517;DHT22;7344;50.864;4.362;2023-07-02T04:38:44;16.10;99.90
14517;DHT22;7344;50.864;4.362;2023-07-02T04:41:10;16.30;99.90
14517;DHT22;7344;50.864;4.362;2023-07-02T04:43:36;16.40;99.90
14517;DHT22;7344;50.864;4.362;2023-07-02T04:46:01;16.30;99.90
14517;DHT22;7344;50.864;4.362;2023-07-02T04:48:27;16.30;99.90
14517;DHT22;7344;50.864;4.362;2023-07-02T04:50:53;16.30;99.90
14517;DHT22;7344;50.864;4.362;2023-07-02T04:53:19;16.40;99.90
14517;DHT22;7344;50.864;4.362;2023-07-02T04:55:44;16.40;99.90
14517;DHT22;7344;50.864;4.362;2023-07-02T04:58:10;16.50;99.90
14517;DHT22;7344;50.864;4.362;2023-07-02T05:00:35;16.60;99.90
14517;DHT22;7344;50.864;4.362;2023-07-02T05:03:01;16.90;99.90
14517;DHT22;7344;50.864;4.362;2023-07-02T05:05:27;17.50;99.90
14517;DHT22;7344;50.864;4.362;2023-07-02T05:07:54;17.50;99.90
14517;DHT22;7344;50.864;4.362;2023-07-02T05:10:20;17.70;99.90
14517;DHT22;7344;50.864;4.362;2023-07-02T05:12:46;17.60;99.90
14517;DHT22;7344;50.864;4.362;2023-07-02T05:15:11;17.50;99.90
14517;DHT22;7344;50.864;4.362;2023-07-02T05:17:37;17.50;99.90
14517;DHT22;7344;50.864;4.362;2023-07-02T05:20:03;17.30;99.90
14517;DHT22;7344;50.864;4.362;2023-07-02T05:22:32;17.30;99.90
14517;DHT22;7344;50.864;4.362;2023-07-02T05:24:58;17.30;99.90
14517;DHT22;7344;50.864;4.362;2023-07-02T05:27:23;17.80;99.90
14517;DHT22;7344;50.864;4.362;2023-07-02T05:29:49;18.30;99.90
14517;DHT22;7344;50.864;4.362;2023-07-02T05:32:15;18.30;99.90
14517;DHT22;7344;50.864;4.362;2023-07-02T05:34:40;18.90;97.20
14517;DHT22;7344;50.864;4.362;2023-07-02T05:37:06;18.90;84.00
14517;DHT22;7344;50.864;4.362;2023-07-02T05:39:33;19.10;77.60
14517;DHT22;7344;50.864;4.362;2023-07-02T05:41:59;19.00;81.80
14517;DHT22;7344;50.864;4.362;2023-07-02T05:44:25;19.20;85.20
14517;DHT22;7344;50.864;4.362;2023-07-02T05:46:50;19.20;63.90
14517;DHT22;7344;50.864;4.362;2023-07-02T05:49:16;19.20;72.70
14517;DHT22;7344;50.864;4.362;2023-07-02T05:51:41;19.50;70.30
14517;DHT22;7344;50.864;4.362;2023-07-02T05:54:07;19.60;64.10
14517;DHT22;7344;50.864;4.362;2023-07-02T05:56:32;19.90;54.70
14517;DHT22;7344;50.864;4.362;2023-07-02T05:58:58;20.00;41.00
14517;DHT22;7344;50.864;4.362;2023-07-02T06:01:24;20.50;27.40
14517;DHT22;7344;50.864;4.362;2023-07-02T06:03:50;21.20;19.50
14517;DHT22;7344;50.864;4.362;2023-07-02T06:06:16;21.90;2.20
14517;DHT22;7344;50.864;4.362;2023-07-02T06:08:41;22.40;1.00
14517;DHT22;7344;50.864;4.362;2023-07-02T06:11:07;22.60;1.00
14517;DHT22;7344;50.864;4.362;2023-07-02T06:13:32;23.10;1.00
14517;DHT22;7344;50.864;4.362;2023-07-02T06:15:58;23.90;1.00
14517;DHT22;7344;50.864;4.362;2023-07-02T06:18:24;24.70;1.00
14517;DHT22;7344;50.864;4.362;2023-07-02T06:20:50;24.70;1.00
14517;DHT22;7344;50.864;4.362;2023-07-02T06:23:16;23.90;1.00
14517;DHT22;7344;50.864;4.362;2023-07-02T06:25:41;23.00;1.00
14517;DHT22;7344;50.864;4.362;2023-07-02T06:28:07;22.60;1.00
14517;DHT22;7344;50.864;4.362;2023-07-02T06:30:33;22.50;1.00
14517;DHT22;7344;50.864;4.362;2023-07-02T06:32:58;22.40;1.00
14517;DHT22;7344;50.864;4.362;2023-07-02T06:35:24;23.20;1.00
14517;DHT22;7344;50.864;4.362;2023-07-02T06:37:50;24.20;1.00
14517;DHT22;7344;50.864;4.362;2023-07-02T06:40:15;24.90;1.00
14517;DHT22;7344;50.864;4.362;2023-07-02T06:42:41;25.40;1.00
14517;DHT22;7344;50.864;4.362;2023-07-02T06:45:07;25.80;1.00
14517;DHT22;7344;50.864;4.362;2023-07-02T06:47:33;25.60;1.00
14517;DHT22;7344;50.864;4.362;2023-07-02T06:49:58;25.00;1.00
14517;DHT22;7344;50.864;4.362;2023-07-02T06:52:24;24.30;1.00
14517;DHT22;7344;50.864;4.362;2023-07-02T06:54:50;24.10;1.00
14517;DHT22;7344;50.864;4.362;2023-07-02T06:57:16;25.60;1.00
14517;DHT22;7344;50.864;4.362;2023-07-02T06:59:42;26.60;1.00
14517;DHT22;7344;50.864;4.362;2023-07-02T07:02:07;26.40;1.00
14517;DHT22;7344;50.864;4.362;2023-07-02T07:04:33;25.70;99.90
14517;DHT22;7344;50.864;4.362;2023-07-02T07:07:02;24.60;1.00
14517;DHT22;7344;50.864;4.362;2023-07-02T07:09:30;24.70;1.00
14517;DHT22;7344;50.864;4.362;2023-07-02T07:11:56;24.40;1.00
14517;DHT22;7344;50.864;4.362;2023-07-02T07:14:22;24.30;99.90
14517;DHT22;7344;50.864;4.362;2023-07-02T07:16:48;23.70;1.00
14517;DHT22;7344;50.864;4.362;2023-07-02T07:19:14;23.30;1.00
14517;DHT22;7344;50.864;4.362;2023-07-02T07:21:39;23.00;1.00
14517;DHT22;7344;50.864;4.362;2023-07-02T07:24:05;23.10;1.00
14517;DHT22;7344;50.864;4.362;2023-07-02T07:26:31;23.30;1.00
14517;DHT22;7344;50.864;4.362;2023-07-02T07:28:57;22.90;1.00
14517;DHT22;7344;50.864;4.362;2023-07-02T07:31:24;22.30;1.00
14517;DHT22;7344;50.864;4.362;2023-07-02T07:33:49;22.40;1.00
14517;DHT22;7344;50.864;4.362;2023-07-02T07:36:15;22.60;1.00
14517;DHT22;7344;50.864;4.362;2023-07-02T07:38:43;22.60;1.00
14517;DHT22;7344;50.864;4.362;2023-07-02T07:41:09;22.30;1.00
14517;DHT22;7344;50.864;4.362;2023-07-02T07:43:34;22.70;1.00
14517;DHT22;7344;50.864;4.362;2023-07-02T07:46:00;22.70;1.00
14517;DHT22;7344;50.864;4.362;2023-07-02T07:48:26;23.20;1.00
14517;DHT22;7344;50.864;4.362;2023-07-02T07:50:52;23.60;99.90
14517;DHT22;7344;50.864;4.362;2023-07-02T07:53:17;23.50;99.90
14517;DHT22;7344;50.864;4.362;2023-07-02T07:55:43;23.80;1.00
14517;DHT22;7344;50.864;4.362;2023-07-02T07:58:08;24.00;99.90
14517;DHT22;7344;50.864;4.362;2023-07-02T08:00:34;24.50;17.20
14517;DHT22;7344;50.864;4.362;2023-07-02T08:03:00;24.90;1.00
14517;DHT22;7344;50.864;4.362;2023-07-02T08:05:26;25.00;1.00
14517;DHT22;7344;50.864;4.362;2023-07-02T08:07:52;25.00;99.90
14517;DHT22;7344;50.864;4.362;2023-07-02T08:10:19;25.20;7.10
14517;DHT22;7344;50.864;4.362;2023-07-02T08:12:45;25.20;1.00
14517;DHT22;7344;50.864;4.362;2023-07-02T08:15:12;25.10;99.90
14517;DHT22;7344;50.864;4.362;2023-07-02T08:17:38;24.90;99.90
14517;DHT22;7344;50.864;4.362;2023-07-02T08:20:04;25.20;1.00
14517;DHT22;7344;50.864;4.362;2023-07-02T08:22:30;25.40;1.00
14517;DHT22;7344;50.864;4.362;2023-07-02T08:24:56;25.10;1.00
14517;DHT22;7344;50.864;4.362;2023-07-02T08:27:21;24.80;1.00
14517;DHT22;7344;50.864;4.362;2023-07-02T08:29:48;25.80;1.00
14517;DHT22;7344;50.864;4.362;2023-07-02T08:32:15;27.10;99.90
14517;DHT22;7344;50.864;4.362;2023-07-02T08:34:41;28.00;1.00
14517;DHT22;7344;50.864;4.362;2023-07-02T08:37:06;27.10;99.90
14517;DHT22;7344;50.864;4.362;2023-07-02T08:39:32;26.50;99.90
14517;DHT22;7344;50.864;4.362;2023-07-02T08:41:58;25.50;99.90
14517;DHT22;7344;50.864;4.362;2023-07-02T08:44:24;25.00;99.90
14517;DHT22;7344;50.864;4.362;2023-07-02T08:46:49;25.00;99.90
14517;DHT22;7344;50.864;4.362;2023-07-02T08:49:16;24.70;24.60
14517;DHT22;7344;50.864;4.362;2023-07-02T08:51:45;24.30;99.90
14517;DHT22;7344;50.864;4.362;2023-07-02T08:54:11;23.80;99.90
14517;DHT22;7344;50.864;4.362;2023-07-02T08:56:37;23.00;1.00
14517;DHT22;7344;50.864;4.362;2023-07-02T08:59:03;22.60;1.00
14517;DHT22;7344;50.864;4.362;2023-07-02T09:01:28;22.80;1.00
14517;DHT22;7344;50.864;4.362;2023-07-02T09:03:59;23.00;1.00
14517;DHT22;7344;50.864;4.362;2023-07-02T09:06:27;23.00;1.00
14517;DHT22;7344;50.864;4.362;2023-07-02T09:08:53;22.60;1.00
14517;DHT22;7344;50.864;4.362;2023-07-02T09:11:28;22.50;1.00
14517;DHT22;7344;50.864;4.362;2023-07-02T09:13:53;22.10;1.00
14517;DHT22;7344;50.864;4.362;2023-07-02T09:16:33;21.90;1.00
14517;DHT22;7344;50.864;4.362;2023-07-02T09:19:07;22.10;1.00
14517;DHT22;7344;50.864;4.362;2023-07-02T09:24:22;21.90;1.00
14517;DHT22;7344;50.864;4.362;2023-07-02T09:26:50;22.00;1.00
14517;DHT22;7344;50.864;4.362;2023-07-02T09:29:27;21.90;1.00
14517;DHT22;7344;50.864;4.362;2023-07-02T09:31:59;22.00;1.00
14517;DHT22;7344;50.864;4.362;2023-07-02T09:34:30;22.30;1.00
14517;DHT22;7344;50.864;4.362;2023-07-02T09:37:00;22.60;99.90
14517;DHT22;7344;50.864;4.362;2023-07-02T09:39:31;23.10;99.90
14517;DHT22;7344;50.864;4.362;2023-07-02T09:41:58;23.60;99.90
14517;DHT22;7344;50.864;4.362;2023-07-02T09:44:29;23.50;1.00
14517;DHT22;7344;50.864;4.362;2023-07-02T09:47:01;23.40;99.90
14517;DHT22;7344;50.864;4.362;2023-07-02T09:49:32;22.50;99.90
14517;DHT22;7344;50.864;4.362;2023-07-02T09:52:00;21.90;1.00
14517;DHT22;7344;50.864;4.362;2023-07-02T09:54:27;21.20;1.00
14517;DHT22;7344;50.864;4.362;2023-07-02T09:56:53;21.10;1.00
14517;DHT22;7344;50.864;4.362;2023-07-02T09:59:18;21.20;1.00
14517;DHT22;7344;50.864;4.362;2023-07-02T10:01:44;21.00;1.00
14517;DHT22;7344;50.864;4.362;2023-07-02T10:04:12;21.10;1.00
14517;DHT22;7344;50.864;4.362;2023-07-02T10:06:48;21.50;1.00
14517;DHT22;7344;50.864;4.362;2023-07-02T10:09:15;22.10;15.20
14517;DHT22;7344;50.864;4.362;2023-07-02T10:11:41;22.40;1.00
14517;DHT22;7344;50.864;4.362;2023-07-02T10:14:07;23.30;1.00
14517;DHT22;7344;50.864;4.362;2023-07-02T10:16:32;23.90;18.50
14517;DHT22;7344;50.864;4.362;2023-07-02T10:19:13;24.20;1.00
14517;DHT22;7344;50.864;4.362;2023-07-02T10:21:39;24.50;1.00
14517;DHT22;7344;50.864;4.362;2023-07-02T10:24:12;24.50;83.30
14517;DHT22;7344;50.864;4.362;2023-07-02T10:26:38;23.90;1.00
14517;DHT22;7344;50.864;4.362;2023-07-02T10:29:03;23.40;99.90
14517;DHT22;7344;50.864;4.362;2023-07-02T10:31:29;23.10;99.90
14517;DHT22;7344;50.864;4.362;2023-07-02T10:33:55;22.90;99.90
14517;DHT22;7344;50.864;4.362;2023-07-02T10:36:22;22.50;1.00
14517;DHT22;7344;50.864;4.362;2023-07-02T10:38:49;22.30;1.00
14517;DHT22;7344;50.864;4.362;2023-07-02T10:41:26;22.40;56.60
14517;DHT22;7344;50.864;4.362;2023-07-02T10:43:52;22.50;1.00
14517;DHT22;7344;50.864;4.362;2023-07-02T10:46:19;22.40;1.00
14517;DHT22;7344;50.864;4.362;2023-07-02T10:48:55;22.00;99.90
14517;DHT22;7344;50.864;4.362;2023-07-02T10:51:21;22.00;1.00
14517;DHT22;7344;50.864;4.362;2023-07-02T10:54:00;22.40;99.90
14517;DHT22;7344;50.864;4.362;2023-07-02T10:56:29;22.70;17.90
14517;DHT22;7344;50.864;4.362;2023-07-02T10:58:55;23.00;99.90
14517;DHT22;7344;50.864;4.362;2023-07-02T11:01:28;23.40;99.90
14517;DHT22;7344;50.864;4.362;2023-07-02T11:04:01;23.60;1.00
14517;DHT22;7344;50.864;4.362;2023-07-02T11:06:28;23.60;99.90
14517;DHT22;7344;50.864;4.362;2023-07-02T11:08:54;23.30;1.00
14517;DHT22;7344;50.864;4.362;2023-07-02T11:11:23;22.80;1.00
14517;DHT22;7344;50.864;4.362;2023-07-02T11:13:50;22.70;1.00
14517;DHT22;7344;50.864;4.362;2023-07-02T11:16:23;23.00;99.90
14517;DHT22;7344;50.864;4.362;2023-07-02T11:19:06;22.60;99.90
14517;DHT22;7344;50.864;4.362;2023-07-02T11:21:33;22.40;1.00
14517;DHT22;7344;50.864;4.362;2023-07-02T11:24:06;22.40;1.00
14517;DHT22;7344;50.864;4.362;2023-07-02T11:26:40;22.20;99.90
14517;DHT22;7344;50.864;4.362;2023-07-02T11:29:12;22.60;19.00
14517;DHT22;7344;50.864;4.362;2023-07-02T11:31:43;22.90;99.90
14517;DHT22;7344;50.864;4.362;2023-07-02T11:34:21;23.60;1.00
14517;DHT22;7344;50.864;4.362;2023-07-02T11:36:48;23.90;99.90
14517;DHT22;7344;50.864;4.362;2023-07-02T11:39:14;24.40;4.40
14517;DHT22;7344;50.864;4.362;2023-07-02T11:41:44;24.40;99.90
14517;DHT22;7344;50.864;4.362;2023-07-02T11:44:10;24.70;99.90
14517;DHT22;7344;50.864;4.362;2023-07-02T11:46:36;24.60;1.00
14517;DHT22;7344;50.864;4.362;2023-07-02T11:49:03;23.80;99.90
14517;DHT22;7344;50.864;4.362;2023-07-02T11:51:37;23.30;1.00
14517;DHT22;7344;50.864;4.362;2023-07-02T11:54:03;22.90;99.90
14517;DHT22;7344;50.864;4.362;2023-07-02T11:56:30;22.50;1.00
14517;DHT22;7344;50.864;4.362;2023-07-02T11:58:55;22.50;1.00
14517;DHT22;7344;50.864;4.362;2023-07-02T12:01:21;22.70;1.00
14517;DHT22;7344;50.864;4.362;2023-07-02T12:03:47;23.70;19.80
14517;DHT22;7344;50.864;4.362;2023-07-02T12:06:12;24.50;1.00
14517;DHT22;7344;50.864;4.362;2023-07-02T12:08:38;25.10;1.00
14517;DHT22;7344;50.864;4.362;2023-07-02T12:11:04;25.70;99.90
14517;DHT22;7344;50.864;4.362;2023-07-02T12:13:29;25.10;1.00
14517;DHT22;7344;50.864;4.362;2023-07-02T12:15:55;25.30;1.00
14517;DHT22;7344;50.864;4.362;2023-07-02T12:18:21;25.20;1.00
14517;DHT22;7344;50.864;4.362;2023-07-02T12:20:46;25.10;1.00
14517;DHT22;7344;50.864;4.362;2023-07-02T12:23:12;24.90;99.90
14517;DHT22;7344;50.864;4.362;2023-07-02T12:25:38;24.60;99.90
14517;DHT22;7344;50.864;4.362;2023-07-02T12:28:04;24.60;1.00
14517;DHT22;7344;50.864;4.362;2023-07-02T12:30:30;24.90;1.00
14517;DHT22;7344;50.864;4.362;2023-07-02T12:32:56;25.40;99.90
14517;DHT22;7344;50.864;4.362;2023-07-02T12:35:22;25.60;1.00
14517;DHT22;7344;50.864;4.362;2023-07-02T12:37:50;25.70;1.00
14517;DHT22;7344;50.864;4.362;2023-07-02T12:40:16;25.70;1.00
14517;DHT22;7344;50.864;4.362;2023-07-02T12:42:43;25.60;99.90
14517;DHT22;7344;50.864;4.362;2023-07-02T12:45:09;25.50;99.90
14517;DHT22;7344;50.864;4.362;2023-07-02T12:47:37;24.90;1.00
14517;DHT22;7344;50.864;4.362;2023-07-02T12:50:03;24.90;1.00
14517;DHT22;7344;50.864;4.362;2023-07-02T12:52:29;24.80;1.00
14517;DHT22;7344;50.864;4.362;2023-07-02T12:54:55;24.50;1.00
14517;DHT22;7344;50.864;4.362;2023-07-02T12:57:21;24.80;1.00
14517;DHT22;7344;50.864;4.362;2023-07-02T12:59:46;24.80;1.00
14517;DHT22;7344;50.864;4.362;2023-07-02T13:02:12;24.90;1.00
14517;DHT22;7344;50.864;4.362;2023-07-02T13:04:38;24.80;1.00
14517;DHT22;7344;50.864;4.362;2023-07-02T13:07:05;24.70;1.00
14517;DHT22;7344;50.864;4.362;2023-07-02T13:09:31;24.40;96.80
14517;DHT22;7344;50.864;4.362;2023-07-02T13:11:56;24.60;1.00
14517;DHT22;7344;50.864;4.362;2023-07-02T13:14:22;24.70;1.00
14517;DHT22;7344;50.864;4.362;2023-07-02T13:16:48;24.70;1.00
14517;DHT22;7344;50.864;4.362;2023-07-02T13:19:13;24.70;1.00
14517;DHT22;7344;50.864;4.362;2023-07-02T13:21:40;24.40;1.00
14517;DHT22;7344;50.864;4.362;2023-07-02T13:24:07;24.00;1.00
14517;DHT22;7344;50.864;4.362;2023-07-02T13:26:32;23.90;99.90
14517;DHT22;7344;50.864;4.362;2023-07-02T13:28:58;24.20;1.00
14517;DHT22;7344;50.864;4.362;2023-07-02T13:31:24;24.40;12.30
14517;DHT22;7344;50.864;4.362;2023-07-02T13:33:49;24.60;1.00
14517;DHT22;7344;50.864;4.362;2023-07-02T13:36:16;24.70;1.00
14517;DHT22;7344;50.864;4.362;2023-07-02T13:38:42;24.80;1.00
14517;DHT22;7344;50.864;4.362;2023-07-02T13:41:07;24.60;1.00
14517;DHT22;7344;50.864;4.362;2023-07-02T13:43:33;24.60;1.00
14517;DHT22;7344;50.864;4.362;2023-07-02T13:45:59;24.00;99.90
14517;DHT22;7344;50.864;4.362;2023-07-02T13:48:25;23.80;1.00
14517;DHT22;7344;50.864;4.362;2023-07-02T13:50:50;23.90;1.00
14517;DHT22;7344;50.864;4.362;2023-07-02T13:53:16;23.80;1.00
14517;DHT22;7344;50.864;4.362;2023-07-02T13:55:41;24.10;1.00
14517;DHT22;7344;50.864;4.362;2023-07-02T13:58:07;24.30;99.90
14517;DHT22;7344;50.864;4.362;2023-07-02T14:00:33;24.00;99.90
14517;DHT22;7344;50.864;4.362;2023-07-02T14:02:58;23.80;99.90
14517;DHT22;7344;50.864;4.362;2023-07-02T14:05:24;23.90;1.00
14517;DHT22;7344;50.864;4.362;2023-07-02T14:07:50;23.80;1.00
14517;DHT22;7344;50.864;4.362;2023-07-02T14:10:15;23.70;1.00
14517;DHT22;7344;50.864;4.362;2023-07-02T14:12:42;23.80;1.00
14517;DHT22;7344;50.864;4.362;2023-07-02T14:15:08;23.70;99.90
14517;DHT22;7344;50.864;4.362;2023-07-02T14:17:35;23.70;1.00
14517;DHT22;7344;50.864;4.362;2023-07-02T14:20:01;23.70;1.00
14517;DHT22;7344;50.864;4.362;2023-07-02T14:22:26;23.80;99.90
14517;DHT22;7344;50.864;4.362;2023-07-02T14:24:52;23.90;99.90
14517;DHT22;7344;50.864;4.362;2023-07-02T14:27:18;24.20;99.90
14517;DHT22;7344;50.864;4.362;2023-07-02T14:29:43;24.10;99.90
14517;DHT22;7344;50.864;4.362;2023-07-02T14:32:09;24.10;99.90
14517;DHT22;7344;50.864;4.362;2023-07-02T14:34:34;23.90;99.90
14517;DHT22;7344;50.864;4.362;2023-07-02T14:37:02;23.90;1.00
14517;DHT22;7344;50.864;4.362;2023-07-02T14:39:28;23.80;87.30
14517;DHT22;7344;50.864;4.362;2023-07-02T14:41:53;23.90;1.00
14517;DHT22;7344;50.864;4.362;2023-07-02T14:44:19;24.10;99.90
14517;DHT22;7344;50.864;4.362;2023-07-02T14:46:45;24.20;1.00
14517;DHT22;7344;50.864;4.362;2023-07-02T14:49:10;24.30;99.90
14517;DHT22;7344;50.864;4.362;2023-07-02T14:51:36;24.10;99.90
14517;DHT22;7344;50.864;4.362;2023-07-02T14:54:02;23.90;99.90
14517;DHT22;7344;50.864;4.362;2023-07-02T14:56:29;24.00;31.90
14517;DHT22;7344;50.864;4.362;2023-07-02T14:58:55;24.10;1.00
14517;DHT22;7344;50.864;4.362;2023-07-02T15:01:21;24.50;1.00
14517;DHT22;7344;50.864;4.362;2023-07-02T15:03:47;24.70;99.90
14517;DHT22;7344;50.864;4.362;2023-07-02T15:06:15;24.40;1.00
14517;DHT22;7344;50.864;4.362;2023-07-02T15:08:41;24.40;99.90
14517;DHT22;7344;50.864;4.362;2023-07-02T15:11:07;24.50;99.90
14517;DHT22;7344;50.864;4.362;2023-07-02T15:13:33;24.60;99.90
14517;DHT22;7344;50.864;4.362;2023-07-02T15:15:59;24.50;1.00
14517;DHT22;7344;50.864;4.362;2023-07-02T15:18:26;24.10;1.00
14517;DHT22;7344;50.864;4.362;2023-07-02T15:20:53;24.20;1.00
14517;DHT22;7344;50.864;4.362;2023-07-02T15:23:22;24.30;99.90
14517;DHT22;7344;50.864;4.362;2023-07-02T15:26:02;23.90;99.90
14517;DHT22;7344;50.864;4.362;2023-07-02T15:28:29;23.70;1.00
14517;DHT22;7344;50.864;4.362;2023-07-02T15:30:59;23.70;1.00
14517;DHT22;7344;50.864;4.362;2023-07-02T15:33:25;23.70;99.90
14517;DHT22;7344;50.864;4.362;2023-07-02T15:35:51;23.80;99.90
14517;DHT22;7344;50.864;4.362;2023-07-02T15:38:17;24.00;99.90
14517;DHT22;7344;50.864;4.362;2023-07-02T15:40:45;24.20;37.70
14517;DHT22;7344;50.864;4.362;2023-07-02T15:43:11;24.10;99.90
14517;DHT22;7344;50.864;4.362;2023-07-02T15:45:37;24.10;48.20
14517;DHT22;7344;50.864;4.362;2023-07-02T15:48:03;24.00;99.90
14517;DHT22;7344;50.864;4.362;2023-07-02T15:50:29;23.80;1.00
14517;DHT22;7344;50.864;4.362;2023-07-02T15:52:54;23.60;1.00